^^
Station Historical Data
Daily Summary for March 12, 2017 Units:  Metric    English   Both
« Previous Day
Next Day »
Daily Weekly Monthly Yearly Custom
  High: Low: Average:
Temperature: 36.9 °C 20.5 °C 27.2 °C
Dew Point: 9.8 °C 4.8 °C 7 °C
Humidity: 41% 14% 29%
Wind Speed: 30.6km/h 0km/h 3.9km/h
Wind Gust: 38.6km/h - -
Wind- - SW
Pressure: 1010 hPa 1005.6 hPa -
Precipitation: 0 mm    
Historical Graphs
 
 
Tabular Data for March 12, 2017
Time Temperature Dew Point Pressure Wind Wind Speed Wind Gust Humidity Rainfall Rate (Hourly) solar Conditions
00:02 26.9 °C 6.3 °C 1008 hPa SSW 16.3 km/h 17.7 km/h 27% 0 mm 0.0 W/m2
00:07 26.8 °C 6.2 °C 1008 hPa SSW 11.1 km/h 14.5 km/h 27% 0 mm 0.0 W/m2
00:12 26.6 °C 6.6 °C 1007.7 hPa SSW 16.3 km/h 16.3 km/h 28% 0 mm 0.0 W/m2
00:17 26.5 °C 6.5 °C 1008 hPa SSW 14.3 km/h 14.5 km/h 28% 0 mm 0.0 W/m2
00:22 26.4 °C 6.4 °C 1008 hPa SSW 11.1 km/h 16.1 km/h 28% 0 mm 0.0 W/m2
00:27 26.3 °C 6.3 °C 1008 hPa SSW 6.4 km/h 12.9 km/h 28% 0 mm 0.0 W/m2
00:32 26.2 °C 6.2 °C 1008.4 hPa Calm   6.4 km/h 28% 0 mm 0.0 W/m2
00:52 25.9 °C 6.5 °C 1009.4 hPa Calm     29% 0 mm 0.0 W/m2
00:57 26 °C 6.6 °C 1009 hPa Calm     29% 0 mm 0.0 W/m2
01:02 25.9 °C 6.5 °C 1009 hPa Calm     29% 0 mm 0.0 W/m2
01:08 25.8 °C 6.4 °C 1008.7 hPa Calm     29% 0 mm 0.0 W/m2
01:13 25.6 °C 6.2 °C 1009 hPa Calm     29% 0 mm 0.0 W/m2
01:18 25.4 °C 6.6 °C 1009 hPa Calm     30% 0 mm 0.0 W/m2
01:23 25.2 °C 5.9 °C 1008.7 hPa Calm     29% 0 mm 0.0 W/m2
01:28 25 °C 6.2 °C 1008.7 hPa Calm     30% 0 mm 0.0 W/m2
01:39 24.6 °C 6.3 °C 1008.7 hPa Calm     31% 0 mm 0.0 W/m2
02:04 24.9 °C 6.1 °C 1008.4 hPa Calm     30% 0 mm 0.0 W/m2
02:09 24.7 °C 6 °C 1008.4 hPa Calm     30% 0 mm 0.0 W/m2
02:20 24.4 °C 6.2 °C 1008.4 hPa Calm     31% 0 mm 0.0 W/m2
02:25 24.1 °C 5.9 °C 1008.4 hPa Calm     31% 0 mm 0.0 W/m2
02:30 23.8 °C 6.1 °C 1008 hPa Calm     32% 0 mm 0.0 W/m2
02:35 23.6 °C 5.9 °C 1008 hPa Calm     32% 0 mm 0.0 W/m2
02:40 23.3 °C 5.7 °C 1008 hPa Calm     32% 0 mm 0.0 W/m2
02:46 23.2 °C 5.6 °C 1008 hPa Calm     32% 0 mm 0.0 W/m2
02:56 22.8 °C 6.1 °C 1008 hPa Calm     34% 0 mm 0.0 W/m2
03:07 23 °C 6.3 °C 1008 hPa Calm     34% 0 mm 0.0 W/m2
03:12 23.2 °C 6 °C 1008 hPa Calm     33% 0 mm 0.0 W/m2
03:18 23.1 °C 6.4 °C 1008 hPa Calm     34% 0 mm 0.0 W/m2
03:23 23 °C 6.3 °C 1008 hPa Calm     34% 0 mm 0.0 W/m2
03:28 22.8 °C 6.1 °C 1008 hPa Calm     34% 0 mm 0.0 W/m2
03:33 22.8 °C 6.1 °C 1008 hPa Calm     34% 0 mm 0.0 W/m2
03:38 22.6 °C 5.9 °C 1007.7 hPa Calm     34% 0 mm 0.0 W/m2
03:44 22.8 °C 6.1 °C 1007.7 hPa Calm     34% 0 mm 0.0 W/m2
03:49 22.9 °C 6.2 °C 1007.7 hPa Calm     34% 0 mm 0.0 W/m2
03:59 22.8 °C 6.1 °C 1007.7 hPa Calm     34% 0 mm 0.0 W/m2
04:05 22.6 °C 5.9 °C 1007.7 hPa Calm     34% 0 mm 0.0 W/m2
04:10 22.3 °C 6.1 °C 1007.7 hPa Calm     35% 0 mm 0.0 W/m2
04:15 22.2 °C 6.4 °C 1007.7 hPa Calm     36% 0 mm 0.0 W/m2
04:20 22.4 °C 6.6 °C 1007.7 hPa Calm     36% 0 mm 0.0 W/m2
04:25 22.4 °C 6.6 °C 1007.7 hPa Calm     36% 0 mm 0.0 W/m2
04:31 22.4 °C 6.6 °C 1007.7 hPa Calm     36% 0 mm 0.0 W/m2
04:36 22.8 °C 6.5 °C 1007.7 hPa Calm     35% 0 mm 0.0 W/m2
04:41 23.1 °C 6.8 °C 1007.7 hPa Calm     35% 0 mm 0.0 W/m2
04:46 23.1 °C 6.8 °C 1007.7 hPa Calm     35% 0 mm 0.0 W/m2
04:51 23.1 °C 6.8 °C 1007.7 hPa Calm     35% 0 mm 0.0 W/m2
04:57 23 °C 6.7 °C 1007.7 hPa Calm     35% 0 mm 0.0 W/m2
05:02 22.9 °C 6.6 °C 1007.7 hPa Calm     35% 0 mm 0.0 W/m2
05:07 22.7 °C 6.9 °C 1007.7 hPa Calm     36% 0 mm 0.0 W/m2
05:12 22.6 °C 6.8 °C 1008 hPa Calm     36% 0 mm 0.0 W/m2
05:18 22.3 °C 6.5 °C 1008 hPa Calm     36% 0 mm 0.0 W/m2
05:23 22.2 °C 6.4 °C 1008 hPa Calm     36% 0 mm 0.0 W/m2
05:29 22.3 °C 6.5 °C 1008 hPa Calm     36% 0 mm 0.0 W/m2
05:34 22.1 °C 6.7 °C 1008 hPa Calm     37% 0 mm 0.0 W/m2
05:39 21.8 °C 6.1 °C 1008 hPa Calm     36% 0 mm 0.0 W/m2
05:44 21.7 °C 6.4 °C 1008.4 hPa Calm     37% 0 mm 0.0 W/m2
05:49 21.6 °C 6.3 °C 1008.4 hPa Calm     37% 0 mm 0.0 W/m2
05:54 21.4 °C 6.5 °C 1008.4 hPa Calm     38% 0 mm 0.0 W/m2
05:59 21.6 °C 6.3 °C 1008.4 hPa Calm     37% 0 mm 0.0 W/m2
06:05 22.2 °C 6.4 °C 1008.4 hPa Calm     36% 0 mm 0.0 W/m2
06:11 22.2 °C 6.8 °C 1008.4 hPa Calm     37% 0 mm 0.0 W/m2
06:21 22.1 °C 6.7 °C 1008.7 hPa Calm     37% 0 mm 0.0 W/m2
06:26 21.9 °C 6.2 °C 1008.7 hPa Calm     36% 0 mm 0.0 W/m2
06:31 21.6 °C 6.7 °C 1008.7 hPa Calm     38% 0 mm 0.0 W/m2
06:36 21.4 °C 6.9 °C 1008.7 hPa Calm     39% 0 mm 0.0 W/m2
06:41 21.2 °C 6.3 °C 1009 hPa Calm     38% 0 mm 0.0 W/m2
06:47 21.1 °C 7 °C 1009 hPa Calm     40% 0 mm 0.0 W/m2
06:52 20.9 °C 6.4 °C 1009 hPa Calm     39% 0 mm 5.0 W/m2
07:02 20.6 °C 6.9 °C 1009 hPa Calm     41% 0 mm 14.0 W/m2
07:07 20.5 °C 6.4 °C 1009 hPa Calm     40% 0 mm 18.0 W/m2
07:13 20.6 °C 6.2 °C 1009 hPa Calm     39% 0 mm 26.0 W/m2
07:18 20.8 °C 6 °C 1009.4 hPa Calm     38% 0 mm 37.0 W/m2
07:23 21 °C 6.5 °C 1009.4 hPa Calm     39% 0 mm 51.0 W/m2
07:34 21.3 °C 6.8 °C 1009.4 hPa Calm     39% 0 mm 81.0 W/m2
07:41 21.7 °C 6.8 °C 1009.7 hPa Calm     38% 0 mm 102.0 W/m2
08:38 26.5 °C 7 °C 1010 hPa Calm     29% 0 mm 330.0 W/m2
08:47 27.1 °C 7 °C 1010 hPa Calm     28% 0 mm 366.0 W/m2
08:58 27.2 °C 7.1 °C 1010 hPa Calm     28% 0 mm 401.0 W/m2
09:08 27.2 °C 7.1 °C 1010 hPa Calm     28% 0 mm 434.0 W/m2
09:41 28.4 °C 7.6 °C 1010 hPa Calm     27% 0 mm 529.0 W/m2
09:54 29.5 °C 8.5 °C 1010 hPa SSW 1.4 km/h 1.6 km/h 27% 0 mm 577.0 W/m2
10:10 30.8 °C 8.5 °C 1010 hPa SSW 3.2 km/h 11.3 km/h 25% 0 mm 628.0 W/m2
10:26 31.3 °C 8.9 °C 1010 hPa Calm   11.3 km/h 25% 0 mm 675.0 W/m2
10:31 31.3 °C 8.9 °C 1010 hPa SSW 4.7 km/h 9.7 km/h 25% 0 mm 687.0 W/m2
10:41 31.4 °C 9 °C 1009.7 hPa Calm   11.3 km/h 25% 0 mm 710.0 W/m2
11:01 31.7 °C 8.7 °C 1009.7 hPa WNW 3.2 km/h 17.7 km/h 24% 0 mm 761.0 W/m2
11:06 31.8 °C 8.7 °C 1009.7 hPa Calm   3.2 km/h 24% 0 mm 772.0 W/m2
11:16 32.1 °C 9 °C 1009.4 hPa WNW 9.7 km/h 19.3 km/h 24% 0 mm 789.0 W/m2
11:36 32.8 °C 8.9 °C 1009 hPa NW 7.9 km/h 14.5 km/h 23% 0 mm 821.0 W/m2
11:58 33 °C 9.1 °C 1009 hPa Calm   11.3 km/h 23% 0 mm 846.0 W/m2
12:03 33.1 °C 8.5 °C 1009 hPa Calm   8 km/h 22% 0 mm 853.0 W/m2
12:26 33.8 °C 8.4 °C 1009 hPa NNW 7.9 km/h 14.5 km/h 21% 0 mm 872.0 W/m2
12:38 34 °C 9.3 °C 1008.4 hPa Calm     22% 0 mm 875.0 W/m2
12:50 34.2 °C 8.8 °C 1008.4 hPa NNW 17.7 km/h 19.3 km/h 21% 0 mm 877.0 W/m2
13:13 34.8 °C 8.5 °C 1008.4 hPa Calm     20% 0 mm 879.0 W/m2
13:27 35.1 °C 7.2 °C 1008 hPa Calm     18% 0 mm 879.0 W/m2
13:43 35.3 °C 8.2 °C 1008 hPa Calm     19% 0 mm 868.0 W/m2
13:59 35.4 °C 8.3 °C 1007.7 hPa Calm     19% 0 mm 858.0 W/m2
14:12 35.6 °C 6.8 °C 1007.3 hPa NNW 3.2 km/h 14.5 km/h 17% 0 mm 837.0 W/m2
14:31 36.2 °C 7.3 °C 1007.3 hPa Calm   3.2 km/h 17% 0 mm 833.0 W/m2
14:37 36.3 °C 6.5 °C 1007 hPa NNW 11.1 km/h 12.9 km/h 16% 0 mm 823.0 W/m2
14:57 36.3 °C 5.5 °C 1006.7 hPa Calm   9.7 km/h 15% 0 mm 838.0 W/m2
15:02 36.4 °C 5.6 °C 1006.7 hPa Calm   12.9 km/h 15% 0 mm 837.0 W/m2
15:20 35.7 °C 6 °C 1006.3 hPa Calm   1.6 km/h 16% 0 mm 800.0 W/m2
15:35 36.7 °C 5.9 °C 1006.3 hPa NNW 6.4 km/h 9.7 km/h 15% 0 mm 786.0 W/m2
15:55 36.9 °C 5 °C 1006.3 hPa NW 13 km/h 22.5 km/h 14% 0 mm 703.0 W/m2
16:04 36.7 °C 4.9 °C 1006.3 hPa Calm     14% 0 mm 645.0 W/m2
16:13 36.8 °C 4.9 °C 1006 hPa Calm   1.6 km/h 14% 0 mm 624.0 W/m2
16:22 36.6 °C 4.8 °C 1006 hPa Calm     14% 0 mm 105.0 W/m2
16:31 35.9 °C 5.2 °C 1006 hPa Calm     15% 0 mm 121.0 W/m2
16:36 36 °C 5.3 °C 1005.6 hPa Calm   12.9 km/h 15% 0 mm 432.0 W/m2
16:52 36.1 °C 5.4 °C 1005.6 hPa Calm   17.7 km/h 15% 0 mm 471.0 W/m2
19:44 34.1 °C 5.6 °C 1006.7 hPa Calm     17% 0 mm 0.0 W/m2
19:52 34 °C 6.3 °C 1007 hPa Calm     18% 0 mm 0.0 W/m2
20:02 33.9 °C 6.3 °C 1007 hPa South 28.8 km/h 32.2 km/h 18% 0 mm 0.0 W/m2
20:08 33.7 °C 6.9 °C 1007.3 hPa South 14.3 km/h 30.6 km/h 19% 0 mm 0.0 W/m2
20:22 32.6 °C 7.4 °C 1007.3 hPa South 20.9 km/h 33.8 km/h 21% 0 mm 0.0 W/m2
20:28 32.4 °C 6.6 °C 1007.7 hPa SSE 27.4 km/h 38.6 km/h 20% 0 mm 0.0 W/m2
20:38 31.8 °C 7.5 °C 1007.7 hPa South 30.6 km/h 38.6 km/h 22% 0 mm 0.0 W/m2
20:56 31.3 °C 7 °C 1008 hPa South 24.1 km/h 27.4 km/h 22% 0 mm 0.0 W/m2
21:27 30.1 °C 9.6 °C 1008.7 hPa SW 11.1 km/h 16.1 km/h 28% 0 mm 0.0 W/m2
21:37 29.7 °C 9.8 °C 1009 hPa SW 16.3 km/h 20.9 km/h 29% 0 mm 0.0 W/m2
21:56 29.1 °C 9.8 °C 1009 hPa SSW 16.3 km/h 16.3 km/h 30% 0 mm 0.0 W/m2
22:06 28.9 °C 9.6 °C 1009 hPa SSW 13 km/h 17.7 km/h 30% 0 mm 0.0 W/m2
22:12 28.8 °C 9.5 °C 1009 hPa SSW 11.1 km/h 14.5 km/h 30% 0 mm 0.0 W/m2
22:36 28.3 °C 9.6 °C 1009 hPa SSW 16.3 km/h 17.7 km/h 31% 0 mm 0.0 W/m2
22:41 28.2 °C 9.5 °C 1009 hPa SSW 16.3 km/h 19.3 km/h 31% 0 mm 0.0 W/m2
22:46 28.2 °C 9.5 °C 1009 hPa SSW 19.5 km/h 20.9 km/h 31% 0 mm 0.0 W/m2
22:52 28.2 °C 9.5 °C 1009.4 hPa SSW 16.3 km/h 20.9 km/h 31% 0 mm 0.0 W/m2
23:12 28 °C 9.3 °C 1009.4 hPa SSW 16.3 km/h 22.5 km/h 31% 0 mm 0.0 W/m2
23:22 27.9 °C 9.2 °C 1009.7 hPa SSW 16.3 km/h 19.3 km/h 31% 0 mm 0.0 W/m2
23:42 27.9 °C 8.7 °C 1009.7 hPa South 13 km/h 14.5 km/h 30% 0 mm 0.0 W/m2
23:47 27.9 °C 8.2 °C 1009.7 hPa South 7.9 km/h 16.1 km/h 29% 0 mm 0.0 W/m2
23:52 27.8 °C 9.1 °C 1010 hPa South 6.4 km/h 8 km/h 31% 0 mm 0.0 W/m2
23:57 27.7 °C 9 °C 1010 hPa South 6.4 km/h 9.7 km/h 31% 0 mm 0.0 W/m2
Canyon Roadhouse, Fishriver Canyon, Namibia
Compliments of Weather Underground - 2.25 mb